sensor_id;sensor_type;location;lat;lon;timestamp;pressure;altitude;pressure_sealevel;temperature;humidity
68871;BME280;55906;52.278;6.808;2023-04-06T00:02:13;101687.63;;;6.17;47.21
68871;BME280;55906;52.278;6.808;2023-04-06T00:04:40;101694.41;;;6.13;47.41
68871;BME280;55906;52.278;6.808;2023-04-06T00:07:07;101689.81;;;6.09;48.68
68871;BME280;55906;52.278;6.808;2023-04-06T00:09:34;101682.69;;;6.06;48.12
68871;BME280;55906;52.278;6.808;2023-04-06T00:12:02;101681.72;;;6.04;48.71
68871;BME280;55906;52.278;6.808;2023-04-06T00:14:29;101687.50;;;5.99;48.98
68871;BME280;55906;52.278;6.808;2023-04-06T00:16:56;101675.06;;;5.95;48.33
68871;BME280;55906;52.278;6.808;2023-04-06T00:19:22;101675.69;;;5.91;48.52
68871;BME280;55906;52.278;6.808;2023-04-06T00:21:49;101672.88;;;5.88;49.64
68871;BME280;55906;52.278;6.808;2023-04-06T00:24:16;101661.38;;;5.84;49.45
68871;BME280;55906;52.278;6.808;2023-04-06T00:26:42;101674.16;;;5.79;49.02
68871;BME280;55906;52.278;6.808;2023-04-06T00:29:10;101666.94;;;5.75;49.51
68871;BME280;55906;52.278;6.808;2023-04-06T00:31:37;101660.38;;;5.67;50.26
68871;BME280;55906;52.278;6.808;2023-04-06T00:34:05;101659.22;;;5.62;50.31
68871;BME280;55906;52.278;6.808;2023-04-06T00:36:32;101653.03;;;5.60;50.71
68871;BME280;55906;52.278;6.808;2023-04-06T00:38:59;101652.94;;;5.59;50.22
68871;BME280;55906;52.278;6.808;2023-04-06T00:41:25;101644.84;;;5.54;50.65
68871;BME280;55906;52.278;6.808;2023-04-06T00:43:53;101646.63;;;5.55;50.59
68871;BME280;55906;52.278;6.808;2023-04-06T00:46:22;101645.47;;;5.50;50.67
68871;BME280;55906;52.278;6.808;2023-04-06T00:48:49;101643.22;;;5.41;51.35
68871;BME280;55906;52.278;6.808;2023-04-06T00:51:16;101643.03;;;5.38;50.72
68871;BME280;55906;52.278;6.808;2023-04-06T00:53:42;101641.06;;;5.34;50.87
68871;BME280;55906;52.278;6.808;2023-04-06T00:56:10;101639.97;;;5.31;51.38
68871;BME280;55906;52.278;6.808;2023-04-06T00:58:36;101636.28;;;5.27;51.43
68871;BME280;55906;52.278;6.808;2023-04-06T01:01:04;101636.19;;;5.26;51.34
68871;BME280;55906;52.278;6.808;2023-04-06T01:03:32;101633.31;;;5.21;51.42
68871;BME280;55906;52.278;6.808;2023-04-06T01:05:59;101635.63;;;5.17;52.10
68871;BME280;55906;52.278;6.808;2023-04-06T01:08:26;101622.38;;;5.13;52.05
68871;BME280;55906;52.278;6.808;2023-04-06T01:10:54;101629.03;;;5.08;52.05
68871;BME280;55906;52.278;6.808;2023-04-06T01:13:20;101626.25;;;5.05;52.51
68871;BME280;55906;52.278;6.808;2023-04-06T01:15:47;101620.84;;;5.02;52.40
68871;BME280;55906;52.278;6.808;2023-04-06T01:18:15;101625.88;;;4.99;51.89
68871;BME280;55906;52.278;6.808;2023-04-06T01:20:43;101617.06;;;4.97;52.34
68871;BME280;55906;52.278;6.808;2023-04-06T01:23:11;101609.88;;;4.93;53.02
68871;BME280;55906;52.278;6.808;2023-04-06T01:25:38;101610.59;;;4.91;53.20
68871;BME280;55906;52.278;6.808;2023-04-06T01:28:04;101612.03;;;4.86;53.31
68871;BME280;55906;52.278;6.808;2023-04-06T01:30:31;101608.22;;;4.80;53.50
68871;BME280;55906;52.278;6.808;2023-04-06T01:32:58;101607.94;;;4.76;53.69
68871;BME280;55906;52.278;6.808;2023-04-06T01:35:26;101600.84;;;4.73;53.85
68871;BME280;55906;52.278;6.808;2023-04-06T01:37:53;101604.06;;;4.69;53.56
68871;BME280;55906;52.278;6.808;2023-04-06T01:40:21;101596.16;;;4.68;54.16
68871;BME280;55906;52.278;6.808;2023-04-06T01:42:48;101600.28;;;4.64;54.09
68871;BME280;55906;52.278;6.808;2023-04-06T01:45:15;101599.19;;;4.61;54.21
68871;BME280;55906;52.278;6.808;2023-04-06T01:47:42;101600.81;;;4.59;54.41
68871;BME280;55906;52.278;6.808;2023-04-06T01:50:09;101593.72;;;4.56;54.40
68871;BME280;55906;52.278;6.808;2023-04-06T01:52:37;101595.22;;;4.53;54.52
68871;BME280;55906;52.278;6.808;2023-04-06T01:55:04;101602.16;;;4.52;54.30
68871;BME280;55906;52.278;6.808;2023-04-06T01:57:32;101602.94;;;4.51;54.44
68871;BME280;55906;52.278;6.808;2023-04-06T01:59:58;101603.66;;;4.48;54.59
68871;BME280;55906;52.278;6.808;2023-04-06T02:02:25;101600.88;;;4.45;54.66
68871;BME280;55906;52.278;6.808;2023-04-06T02:04:52;101604.09;;;4.41;55.02
68871;BME280;55906;52.278;6.808;2023-04-06T02:07:18;101595.78;;;4.34;54.94
68871;BME280;55906;52.278;6.808;2023-04-06T02:09:45;101590.19;;;4.28;54.82
68871;BME280;55906;52.278;6.808;2023-04-06T02:12:12;101591.19;;;4.30;54.87
68871;BME280;55906;52.278;6.808;2023-04-06T02:14:40;101590.19;;;4.28;54.78
68871;BME280;55906;52.278;6.808;2023-04-06T02:17:07;101594.41;;;4.26;55.03
68871;BME280;55906;52.278;6.808;2023-04-06T02:19:33;101580.31;;;4.22;55.44
68871;BME280;55906;52.278;6.808;2023-04-06T02:22:00;101582.72;;;4.19;56.03
68871;BME280;55906;52.278;6.808;2023-04-06T02:24:27;101580.91;;;4.18;56.33
68871;BME280;55906;52.278;6.808;2023-04-06T02:26:53;101579.81;;;4.14;56.20
68871;BME280;55906;52.278;6.808;2023-04-06T02:29:20;101581.44;;;4.12;55.78
68871;BME280;55906;52.278;6.808;2023-04-06T02:31:48;101575.31;;;4.12;55.65
68871;BME280;55906;52.278;6.808;2023-04-06T02:34:15;101581.16;;;4.08;55.67
68871;BME280;55906;52.278;6.808;2023-04-06T02:36:42;101576.75;;;4.07;55.57
68871;BME280;55906;52.278;6.808;2023-04-06T02:39:09;101571.34;;;4.04;56.11
68871;BME280;55906;52.278;6.808;2023-04-06T02:41:36;101574.75;;;4.03;55.66
68871;BME280;55906;52.278;6.808;2023-04-06T02:44:03;101577.16;;;4.00;55.80
68871;BME280;55906;52.278;6.808;2023-04-06T02:46:30;101571.94;;;4.00;55.88
68871;BME280;55906;52.278;6.808;2023-04-06T02:48:58;101577.97;;;3.99;56.68
68871;BME280;55906;52.278;6.808;2023-04-06T02:51:25;101574.38;;;3.97;56.34
68871;BME280;55906;52.278;6.808;2023-04-06T02:53:52;101573.56;;;3.98;55.82
68871;BME280;55906;52.278;6.808;2023-04-06T02:56:19;101568.16;;;3.95;56.72
68871;BME280;55906;52.278;6.808;2023-04-06T02:58:46;101563.84;;;3.95;56.53
68871;BME280;55906;52.278;6.808;2023-04-06T03:01:13;101567.16;;;3.93;55.96
68871;BME280;55906;52.278;6.808;2023-04-06T03:03:40;101564.34;;;3.90;56.55
68871;BME280;55906;52.278;6.808;2023-04-06T03:06:08;101552.81;;;3.86;56.60
68871;BME280;55906;52.278;6.808;2023-04-06T03:08:35;101560.44;;;3.83;57.05
68871;BME280;55906;52.278;6.808;2023-04-06T03:11:01;101559.63;;;3.84;56.72
68871;BME280;55906;52.278;6.808;2023-04-06T03:13:28;101556.13;;;3.83;57.43
68871;BME280;55906;52.278;6.808;2023-04-06T03:15:55;101556.13;;;3.83;56.52
68871;BME280;55906;52.278;6.808;2023-04-06T03:18:23;101556.84;;;3.81;57.19
68871;BME280;55906;52.278;6.808;2023-04-06T03:20:50;101553.94;;;3.76;56.59
68871;BME280;55906;52.278;6.808;2023-04-06T03:23:20;101546.94;;;3.75;56.93
68871;BME280;55906;52.278;6.808;2023-04-06T03:25:47;101548.44;;;3.72;56.94
68871;BME280;55906;52.278;6.808;2023-04-06T03:28:13;101548.34;;;3.70;56.68
68871;BME280;55906;52.278;6.808;2023-04-06T03:30:41;101551.75;;;3.69;56.83
68871;BME280;55906;52.278;6.808;2023-04-06T03:33:08;101547.25;;;3.67;57.41
68871;BME280;55906;52.278;6.808;2023-04-06T03:35:35;101558.56;;;3.67;57.77
68871;BME280;55906;52.278;6.808;2023-04-06T03:38:03;101545.56;;;3.67;57.69
68871;BME280;55906;52.278;6.808;2023-04-06T03:40:32;101553.25;;;3.66;57.28
68871;BME280;55906;52.278;6.808;2023-04-06T03:42:59;101560.47;;;3.57;57.75
68871;BME280;55906;52.278;6.808;2023-04-06T03:45:26;101561.16;;;3.54;57.80
68871;BME280;55906;52.278;6.808;2023-04-06T03:47:53;101557.56;;;3.52;57.96
68871;BME280;55906;52.278;6.808;2023-04-06T03:50:19;101554.78;;;3.49;58.02
68871;BME280;55906;52.278;6.808;2023-04-06T03:52:46;101555.56;;;3.48;57.90
68871;BME280;55906;52.278;6.808;2023-04-06T03:55:13;101549.38;;;3.46;57.72
68871;BME280;55906;52.278;6.808;2023-04-06T03:57:41;101543.78;;;3.40;58.74
68871;BME280;55906;52.278;6.808;2023-04-06T04:00:09;101548.78;;;3.37;58.37
68871;BME280;55906;52.278;6.808;2023-04-06T04:02:36;101552.28;;;3.37;58.86
68871;BME280;55906;52.278;6.808;2023-04-06T04:05:03;101548.56;;;3.34;58.17
68871;BME280;55906;52.278;6.808;2023-04-06T04:07:30;101547.69;;;3.33;58.60
68871;BME280;55906;52.278;6.808;2023-04-06T04:09:56;101547.78;;;3.35;58.87
68871;BME280;55906;52.278;6.808;2023-04-06T04:12:23;101544.06;;;3.31;59.41
68871;BME280;55906;52.278;6.808;2023-04-06T04:14:51;101543.97;;;3.30;58.68
68871;BME280;55906;52.278;6.808;2023-04-06T04:17:18;101546.47;;;3.28;59.21
68871;BME280;55906;52.278;6.808;2023-04-06T04:19:45;101540.97;;;3.24;58.58
68871;BME280;55906;52.278;6.808;2023-04-06T04:22:11;101539.28;;;3.24;58.57
68871;BME280;55906;52.278;6.808;2023-04-06T04:24:38;101537.38;;;3.21;58.97
68871;BME280;55906;52.278;6.808;2023-04-06T04:27:05;101538.78;;;3.16;57.89
68871;BME280;55906;52.278;6.808;2023-04-06T04:29:31;101541.16;;;3.13;58.84
68871;BME280;55906;52.278;6.808;2023-04-06T04:32:00;101541.16;;;3.13;58.85
68871;BME280;55906;52.278;6.808;2023-04-06T04:34:27;101545.47;;;3.13;58.89
68871;BME280;55906;52.278;6.808;2023-04-06T04:36:54;101547.16;;;3.12;58.20
68871;BME280;55906;52.278;6.808;2023-04-06T04:39:21;101544.47;;;3.11;58.81
68871;BME280;55906;52.278;6.808;2023-04-06T04:41:48;101544.34;;;3.09;57.20
68871;BME280;55906;52.278;6.808;2023-04-06T04:44:15;101548.56;;;3.07;57.70
68871;BME280;55906;52.278;6.808;2023-04-06T04:46:42;101542.16;;;3.02;57.68
68871;BME280;55906;52.278;6.808;2023-04-06T04:49:13;101542.06;;;3.01;58.73
68871;BME280;55906;52.278;6.808;2023-04-06T04:51:40;101546.16;;;2.97;58.42
68871;BME280;55906;52.278;6.808;2023-04-06T04:54:07;101538.25;;;2.96;58.66
68871;BME280;55906;52.278;6.808;2023-04-06T04:56:34;101541.75;;;2.96;58.88
68871;BME280;55906;52.278;6.808;2023-04-06T04:59:02;101538.25;;;2.96;58.22
68871;BME280;55906;52.278;6.808;2023-04-06T05:01:29;101540.16;;;2.98;57.36
68871;BME280;55906;52.278;6.808;2023-04-06T05:03:57;101531.34;;;2.96;58.05
68871;BME280;55906;52.278;6.808;2023-04-06T05:06:26;101531.34;;;2.96;59.03
68871;BME280;55906;52.278;6.808;2023-04-06T05:08:53;101533.16;;;2.97;58.14
68871;BME280;55906;52.278;6.808;2023-04-06T05:11:21;101527.16;;;2.98;58.78
68871;BME280;55906;52.278;6.808;2023-04-06T05:13:47;101529.84;;;3.00;59.14
68871;BME280;55906;52.278;6.808;2023-04-06T05:16:14;101530.84;;;3.02;58.67
68871;BME280;55906;52.278;6.808;2023-04-06T05:18:41;101530.16;;;3.04;57.86
68871;BME280;55906;52.278;6.808;2023-04-06T05:21:08;101532.97;;;3.07;57.51
68871;BME280;55906;52.278;6.808;2023-04-06T05:23:37;101538.25;;;3.09;57.78
68871;BME280;55906;52.278;6.808;2023-04-06T05:26:04;101532.38;;;3.11;57.92
68871;BME280;55906;52.278;6.808;2023-04-06T05:28:32;101527.38;;;3.14;57.52
68871;BME280;55906;52.278;6.808;2023-04-06T05:30:58;101541.56;;;3.19;57.40
68871;BME280;55906;52.278;6.808;2023-04-06T05:33:25;101528.88;;;3.24;57.44
68871;BME280;55906;52.278;6.808;2023-04-06T05:35:52;101535.16;;;3.28;58.13
68871;BME280;55906;52.278;6.808;2023-04-06T05:38:19;101539.06;;;3.34;58.28
68871;BME280;55906;52.278;6.808;2023-04-06T05:40:47;101529.06;;;3.40;57.60
68871;BME280;55906;52.278;6.808;2023-04-06T05:43:14;101529.38;;;3.45;57.15
68871;BME280;55906;52.278;6.808;2023-04-06T05:45:41;101528.66;;;3.47;57.68
68871;BME280;55906;52.278;6.808;2023-04-06T05:48:10;101526.34;;;3.52;56.94
68871;BME280;55906;52.278;6.808;2023-04-06T05:50:36;101528.56;;;3.59;57.99
68871;BME280;55906;52.278;6.808;2023-04-06T05:53:03;101532.34;;;3.64;56.69
68871;BME280;55906;52.278;6.808;2023-04-06T05:55:30;101523.22;;;3.71;57.04
68871;BME280;55906;52.278;6.808;2023-04-06T05:57:58;101524.44;;;3.76;57.12
68871;BME280;55906;52.278;6.808;2023-04-06T06:00:25;101526.72;;;3.84;57.27
68871;BME280;55906;52.278;6.808;2023-04-06T06:02:51;101518.63;;;3.93;56.87
68871;BME280;55906;52.278;6.808;2023-04-06T06:05:18;101528.69;;;4.02;56.92
68871;BME280;55906;52.278;6.808;2023-04-06T06:07:45;101528.88;;;4.05;57.41
68871;BME280;55906;52.278;6.808;2023-04-06T06:10:12;101528.75;;;4.16;56.16
68871;BME280;55906;52.278;6.808;2023-04-06T06:12:39;101517.00;;;4.23;56.92
68871;BME280;55906;52.278;6.808;2023-04-06T06:15:08;101526.38;;;4.34;56.00
68871;BME280;55906;52.278;6.808;2023-04-06T06:17:35;101525.13;;;4.42;56.04
68871;BME280;55906;52.278;6.808;2023-04-06T06:20:03;101522.09;;;4.49;56.29
68871;BME280;55906;52.278;6.808;2023-04-06T06:22:30;101517.63;;;4.62;55.50
68871;BME280;55906;52.278;6.808;2023-04-06T06:24:57;101520.88;;;4.72;55.49
68871;BME280;55906;52.278;6.808;2023-04-06T06:27:24;101512.97;;;4.86;55.07
68871;BME280;55906;52.278;6.808;2023-04-06T06:29:51;101514.50;;;4.97;55.43
68871;BME280;55906;52.278;6.808;2023-04-06T06:32:19;101510.09;;;5.10;54.97
68871;BME280;55906;52.278;6.808;2023-04-06T06:34:46;101520.16;;;5.19;54.24
68871;BME280;55906;52.278;6.808;2023-04-06T06:37:12;101517.19;;;5.28;54.03
68871;BME280;55906;52.278;6.808;2023-04-06T06:39:40;101512.41;;;5.35;53.61
68871;BME280;55906;52.278;6.808;2023-04-06T06:42:06;101515.47;;;5.43;53.78
68871;BME280;55906;52.278;6.808;2023-04-06T06:44:33;101504.09;;;5.57;53.45
68871;BME280;55906;52.278;6.808;2023-04-06T06:47:00;101513.41;;;5.68;52.83
68871;BME280;55906;52.278;6.808;2023-04-06T06:49:28;101517.53;;;5.79;53.04
68871;BME280;55906;52.278;6.808;2023-04-06T06:51:54;101516.22;;;5.88;52.40
68871;BME280;55906;52.278;6.808;2023-04-06T06:54:21;101506.47;;;6.00;52.27
68871;BME280;55906;52.278;6.808;2023-04-06T06:56:48;101509.44;;;6.06;51.53
68871;BME280;55906;52.278;6.808;2023-04-06T06:59:14;101512.69;;;6.18;51.74
68871;BME280;55906;52.278;6.808;2023-04-06T07:01:42;101513.50;;;6.33;51.40
68871;BME280;55906;52.278;6.808;2023-04-06T07:04:09;101516.78;;;6.46;51.85
68871;BME280;55906;52.278;6.808;2023-04-06T07:06:37;101511.25;;;6.56;51.50
68871;BME280;55906;52.278;6.808;2023-04-06T07:09:04;101503.22;;;6.69;50.85
68871;BME280;55906;52.278;6.808;2023-04-06T07:11:30;101505.06;;;6.88;50.72
68871;BME280;55906;52.278;6.808;2023-04-06T07:13:57;101503.28;;;7.04;49.76
68871;BME280;55906;52.278;6.808;2023-04-06T07:16:24;101504.72;;;7.16;49.46
68871;BME280;55906;52.278;6.808;2023-04-06T07:18:50;101507.03;;;7.27;49.60
68871;BME280;55906;52.278;6.808;2023-04-06T07:21:17;101494.47;;;7.38;49.12
68871;BME280;55906;52.278;6.808;2023-04-06T07:23:45;101492.91;;;7.59;48.03
68871;BME280;55906;52.278;6.808;2023-04-06T07:26:13;101497.59;;;7.66;47.93
68871;BME280;55906;52.278;6.808;2023-04-06T07:28:40;101494.97;;;7.84;48.21
68871;BME280;55906;52.278;6.808;2023-04-06T07:31:06;101491.97;;;7.94;47.08
68871;BME280;55906;52.278;6.808;2023-04-06T07:33:33;101486.66;;;8.12;46.89
68871;BME280;55906;52.278;6.808;2023-04-06T07:36:00;101483.56;;;8.21;46.17
68871;BME280;55906;52.278;6.808;2023-04-06T07:38:26;101492.91;;;8.33;45.53
68871;BME280;55906;52.278;6.808;2023-04-06T07:40:55;101493.59;;;8.49;45.40
68871;BME280;55906;52.278;6.808;2023-04-06T07:43:22;101491.31;;;8.56;45.34
68871;BME280;55906;52.278;6.808;2023-04-06T07:45:48;101486.91;;;8.76;44.69
68871;BME280;55906;52.278;6.808;2023-04-06T07:48:15;101484.00;;;8.89;44.69
68871;BME280;55906;52.278;6.808;2023-04-06T07:50:42;101482.78;;;9.02;43.80
68871;BME280;55906;52.278;6.808;2023-04-06T07:53:09;101484.78;;;9.28;44.22
68871;BME280;55906;52.278;6.808;2023-04-06T07:55:35;101481.97;;;9.24;43.38
68871;BME280;55906;52.278;6.808;2023-04-06T07:58:04;101488.72;;;9.40;42.56
68871;BME280;55906;52.278;6.808;2023-04-06T08:00:31;101486.84;;;9.58;42.89
68871;BME280;55906;52.278;6.808;2023-04-06T08:02:57;101486.56;;;9.73;42.92
68871;BME280;55906;52.278;6.808;2023-04-06T08:05:24;101488.94;;;9.67;42.67
68871;BME280;55906;52.278;6.808;2023-04-06T08:07:51;101483.91;;;9.73;42.59
68871;BME280;55906;52.278;6.808;2023-04-06T08:10:18;101483.56;;;9.86;42.19
68871;BME280;55906;52.278;6.808;2023-04-06T08:12:44;101480.75;;;9.81;42.65
68871;BME280;55906;52.278;6.808;2023-04-06T08:15:12;101479.84;;;10.03;41.60
68871;BME280;55906;52.278;6.808;2023-04-06T08:17:39;101481.22;;;10.40;42.02
68871;BME280;55906;52.278;6.808;2023-04-06T08:20:06;101474.31;;;10.66;41.64
68871;BME280;55906;52.278;6.808;2023-04-06T08:22:33;101478.25;;;11.04;40.83
68871;BME280;55906;52.278;6.808;2023-04-06T08:25:00;101472.25;;;11.35;41.01
68871;BME280;55906;52.278;6.808;2023-04-06T08:27:26;101470.22;;;11.80;39.84
68871;BME280;55906;52.278;6.808;2023-04-06T08:29:53;101468.97;;;12.27;39.26
68871;BME280;55906;52.278;6.808;2023-04-06T08:32:21;101463.66;;;12.90;38.39
68871;BME280;55906;52.278;6.808;2023-04-06T08:34:48;101460.03;;;13.18;37.46
68871;BME280;55906;52.278;6.808;2023-04-06T08:37:15;101454.94;;;13.63;37.66
68871;BME280;55906;52.278;6.808;2023-04-06T08:39:41;101453.06;;;13.98;35.35
68871;BME280;55906;52.278;6.808;2023-04-06T08:42:12;101458.94;;;14.26;34.33
68871;BME280;55906;52.278;6.808;2023-04-06T08:44:43;101453.34;;;14.53;33.33
68871;BME280;55906;52.278;6.808;2023-04-06T08:47:11;101455.88;;;14.93;33.98
68871;BME280;55906;52.278;6.808;2023-04-06T08:49:39;101451.75;;;15.12;32.72
68871;BME280;55906;52.278;6.808;2023-04-06T08:52:06;101451.28;;;15.36;32.29
68871;BME280;55906;52.278;6.808;2023-04-06T08:54:33;101443.56;;;15.53;31.58
68871;BME280;55906;52.278;6.808;2023-04-06T08:57:01;101452.53;;;15.58;31.65
68871;BME280;55906;52.278;6.808;2023-04-06T08:59:29;101456.81;;;15.53;31.33
68871;BME280;55906;52.278;6.808;2023-04-06T09:01:56;101442.13;;;15.70;31.34
68871;BME280;55906;52.278;6.808;2023-04-06T09:04:23;101447.03;;;15.49;31.15
68871;BME280;55906;52.278;6.808;2023-04-06T09:06:52;101449.06;;;15.62;31.57
68871;BME280;55906;52.278;6.808;2023-04-06T09:09:19;101446.34;;;15.59;31.37
68871;BME280;55906;52.278;6.808;2023-04-06T09:11:47;101447.13;;;15.55;31.32
68871;BME280;55906;52.278;6.808;2023-04-06T09:14:14;101456.31;;;15.21;31.47
68871;BME280;55906;52.278;6.808;2023-04-06T09:16:43;101449.13;;;15.12;31.57
68871;BME280;55906;52.278;6.808;2023-04-06T09:19:11;101449.78;;;14.99;31.80
68871;BME280;55906;52.278;6.808;2023-04-06T09:21:38;101449.19;;;14.65;32.26
68871;BME280;55906;52.278;6.808;2023-04-06T09:24:08;101447.44;;;14.67;32.03
68871;BME280;55906;52.278;6.808;2023-04-06T09:26:44;101445.44;;;14.54;32.52
68871;BME280;55906;52.278;6.808;2023-04-06T09:29:22;101441.47;;;14.34;32.50
68871;BME280;55906;52.278;6.808;2023-04-06T09:31:49;101439.16;;;14.49;32.74
68871;BME280;55906;52.278;6.808;2023-04-06T09:34:21;101438.66;;;14.68;31.92
68871;BME280;55906;52.278;6.808;2023-04-06T09:36:48;101438.91;;;14.84;31.84
68871;BME280;55906;52.278;6.808;2023-04-06T09:39:20;101433.72;;;14.90;31.42
68871;BME280;55906;52.278;6.808;2023-04-06T09:41:50;101423.56;;;15.17;31.56
68871;BME280;55906;52.278;6.808;2023-04-06T09:44:18;101420.53;;;15.49;31.08
68871;BME280;55906;52.278;6.808;2023-04-06T09:46:46;101426.13;;;15.64;30.50
68871;BME280;55906;52.278;6.808;2023-04-06T09:49:13;101418.13;;;15.62;30.20
68871;BME280;55906;52.278;6.808;2023-04-06T09:51:43;101431.19;;;15.53;29.82
68871;BME280;55906;52.278;6.808;2023-04-06T09:54:18;101419.75;;;15.56;29.78
68871;BME280;55906;52.278;6.808;2023-04-06T09:56:46;101419.25;;;15.78;29.70
68871;BME280;55906;52.278;6.808;2023-04-06T09:59:17;101415.09;;;16.00;29.17
68871;BME280;55906;52.278;6.808;2023-04-06T10:01:46;101414.25;;;16.04;28.99
68871;BME280;55906;52.278;6.808;2023-04-06T10:04:23;101417.25;;;16.33;28.26
68871;BME280;55906;52.278;6.808;2023-04-06T10:06:52;101416.34;;;16.31;28.57
68871;BME280;55906;52.278;6.808;2023-04-06T10:09:24;101421.19;;;16.67;27.91
68871;BME280;55906;52.278;6.808;2023-04-06T10:11:52;101409.88;;;16.88;27.81
68871;BME280;55906;52.278;6.808;2023-04-06T10:14:19;101411.81;;;17.06;27.20
68871;BME280;55906;52.278;6.808;2023-04-06T10:16:48;101403.91;;;17.16;27.12
68871;BME280;55906;52.278;6.808;2023-04-06T10:19:18;101403.16;;;17.36;26.83
68871;BME280;55906;52.278;6.808;2023-04-06T10:21:51;101404.16;;;17.53;26.54
68871;BME280;55906;52.278;6.808;2023-04-06T10:24:21;101405.28;;;17.95;26.31
68871;BME280;55906;52.278;6.808;2023-04-06T10:26:57;101408.88;;;18.03;25.85
68871;BME280;55906;52.278;6.808;2023-04-06T10:29:23;101392.84;;;17.87;25.24
68871;BME280;55906;52.278;6.808;2023-04-06T10:31:50;101397.38;;;18.08;25.51
68871;BME280;55906;52.278;6.808;2023-04-06T10:34:17;101405.47;;;18.30;25.60
68871;BME280;55906;52.278;6.808;2023-04-06T10:36:44;101390.44;;;18.62;24.83
68871;BME280;55906;52.278;6.808;2023-04-06T10:39:10;101393.03;;;18.30;25.05
68871;BME280;55906;52.278;6.808;2023-04-06T10:41:41;101388.59;;;18.40;24.42
68871;BME280;55906;52.278;6.808;2023-04-06T10:44:17;101384.94;;;18.09;23.95
68871;BME280;55906;52.278;6.808;2023-04-06T10:46:52;101387.56;;;17.98;23.76
68871;BME280;55906;52.278;6.808;2023-04-06T10:49:19;101390.16;;;17.81;24.28
68871;BME280;55906;52.278;6.808;2023-04-06T10:51:51;101378.69;;;17.98;23.92
68871;BME280;55906;52.278;6.808;2023-04-06T10:54:19;101381.47;;;18.25;23.52
68871;BME280;55906;52.278;6.808;2023-04-06T10:56:48;101385.94;;;18.32;23.88
68871;BME280;55906;52.278;6.808;2023-04-06T10:59:18;101366.31;;;18.16;23.96
68871;BME280;55906;52.278;6.808;2023-04-06T11:01:45;101373.47;;;18.28;24.15
68871;BME280;55906;52.278;6.808;2023-04-06T11:04:15;101375.25;;;18.29;24.03
68871;BME280;55906;52.278;6.808;2023-04-06T11:06:46;101368.16;;;18.28;24.26
68871;BME280;55906;52.278;6.808;2023-04-06T11:09:23;101366.41;;;18.45;24.21
68871;BME280;55906;52.278;6.808;2023-04-06T11:11:53;101370.91;;;18.91;23.90
68871;BME280;55906;52.278;6.808;2023-04-06T11:14:20;101365.47;;;19.50;23.76
68871;BME280;55906;52.278;6.808;2023-04-06T11:16:47;101365.50;;;19.39;23.05
68871;BME280;55906;52.278;6.808;2023-04-06T11:19:16;101360.19;;;19.33;23.16
68871;BME280;55906;52.278;6.808;2023-04-06T11:21:44;101361.88;;;19.86;22.94
68871;BME280;55906;52.278;6.808;2023-04-06T11:24:14;101361.97;;;19.56;22.66
68871;BME280;55906;52.278;6.808;2023-04-06T11:26:42;101353.03;;;19.72;23.16
68871;BME280;55906;52.278;6.808;2023-04-06T11:29:12;101355.44;;;20.22;22.41
68871;BME280;55906;52.278;6.808;2023-04-06T11:31:45;101345.41;;;20.61;22.80
68871;BME280;55906;52.278;6.808;2023-04-06T11:34:12;101355.72;;;21.08;21.67
68871;BME280;55906;52.278;6.808;2023-04-06T11:36:40;101346.13;;;20.80;21.02
68871;BME280;55906;52.278;6.808;2023-04-06T11:39:08;101349.53;;;21.03;21.40
68871;BME280;55906;52.278;6.808;2023-04-06T11:41:35;101334.44;;;20.94;21.90
68871;BME280;55906;52.278;6.808;2023-04-06T11:44:02;101337.78;;;21.19;21.29
68871;BME280;55906;52.278;6.808;2023-04-06T11:46:31;101346.78;;;21.09;21.50
68871;BME280;55906;52.278;6.808;2023-04-06T11:48:58;101337.97;;;20.98;22.01
68871;BME280;55906;52.278;6.808;2023-04-06T11:51:27;101336.69;;;21.38;21.70
68871;BME280;55906;52.278;6.808;2023-04-06T11:53:54;101346.69;;;21.18;21.87
68871;BME280;55906;52.278;6.808;2023-04-06T11:56:25;101354.69;;;21.21;21.95
68871;BME280;55906;52.278;6.808;2023-04-06T11:58:53;101352.34;;;20.88;22.51
68871;BME280;55906;52.278;6.808;2023-04-06T12:01:20;101346.16;;;20.78;22.80
68871;BME280;55906;52.278;6.808;2023-04-06T12:03:48;101338.19;;;20.70;22.49
68871;BME280;55906;52.278;6.808;2023-04-06T12:06:15;101345.31;;;20.73;22.37
68871;BME280;55906;52.278;6.808;2023-04-06T12:08:42;101337.59;;;20.27;22.97
68871;BME280;55906;52.278;6.808;2023-04-06T12:11:10;101348.38;;;20.12;23.49
68871;BME280;55906;52.278;6.808;2023-04-06T12:13:36;101335.25;;;19.63;24.09
68871;BME280;55906;52.278;6.808;2023-04-06T12:16:03;101348.56;;;19.77;23.90
68871;BME280;55906;52.278;6.808;2023-04-06T12:18:30;101337.94;;;19.36;24.49
68871;BME280;55906;52.278;6.808;2023-04-06T12:20:58;101338.91;;;19.04;25.01
68871;BME280;55906;52.278;6.808;2023-04-06T12:23:25;101342.47;;;19.03;25.30
68871;BME280;55906;52.278;6.808;2023-04-06T12:25:52;101330.88;;;19.18;25.20
68871;BME280;55906;52.278;6.808;2023-04-06T12:28:20;101328.22;;;19.03;25.61
68871;BME280;55906;52.278;6.808;2023-04-06T12:30:48;101340.69;;;18.90;25.40
68871;BME280;55906;52.278;6.808;2023-04-06T12:33:15;101335.38;;;18.61;25.84
68871;BME280;55906;52.278;6.808;2023-04-06T12:35:42;101330.00;;;18.40;26.46
68871;BME280;55906;52.278;6.808;2023-04-06T12:38:10;101338.84;;;18.20;26.46
68871;BME280;55906;52.278;6.808;2023-04-06T12:40:37;101345.00;;;18.07;26.58
68871;BME280;55906;52.278;6.808;2023-04-06T12:43:05;101341.34;;;17.82;27.02
68871;BME280;55906;52.278;6.808;2023-04-06T12:45:32;101352.91;;;17.84;26.89
68871;BME280;55906;52.278;6.808;2023-04-06T12:47:58;101337.63;;;17.47;27.18
68871;BME280;55906;52.278;6.808;2023-04-06T12:50:25;101342.03;;;17.43;27.79
68871;BME280;55906;52.278;6.808;2023-04-06T12:52:52;101339.34;;;17.39;28.17
68871;BME280;55906;52.278;6.808;2023-04-06T12:55:20;101343.59;;;17.06;29.29
68871;BME280;55906;52.278;6.808;2023-04-06T12:57:47;101340.69;;;16.79;29.98
68871;BME280;55906;52.278;6.808;2023-04-06T13:00:15;101340.53;;;16.63;30.63